Blue Grass Airport
KLEX : now visible

Airfield :











YOU CAN JOIN US ON...

 
LOGIN :

Register | Disclaimer

   EN    FR    IT 

 









Legend :    VFR   Marginal VFR   IFR   Intensive IFR   Very Intensive IFR
Visi :
Ceiling :
>= 8 km
>= 3000ft
5 to 8 km
1000 to 3000 ft
1500m to 5 km
500 to 1000 ft
800 to 1500m
200 to 500 ft
< 800m
< 200 ft
Symbols :   Thunderstorms  Fog  Heavy snow  Heavy precipitations  Wind > 20 kt






- Airport Elevation : 979 ft
- IATA code : LEX


KLEX - Blue Grass

CURRENT METAR :
  • 190854Z 17007KT 10SM CLR 19/17 A2999 RMK AO2 SLP145 60010 T01890172 57019 $

EXPIRED METARs :
  • 190754Z 13010KT 10SM BKN055 19/17 A2997 RMK AO2 RAB0657E17 SLP140 P0000 T01940167 $
  • 190710Z 05009KT 10SM -RA OVC055 19/18 A3004 RMK AO2 LTG DSNT NW-E RAB0657 P0000 T01890178 $
  • 190654Z 03010KT 10SM VCTS OVC050 19/17 A3006 RMK AO2 LTG DSNT NW-E RAB05E47 SLP170 P0010 T01890172 $

TAF KLEX
Valid from the 19 at 06:00 until the 20 at 06:00 UTC


190533Z 1906/2006 21010KT P6SM BKN250
FM190700 VRB10KT 4SM -SHRA VCTS BKN060CB
FM191000 21008KT P6SM BKN110
FM191400 22011G18KT P6SM SCT250
FM200100 21005KT P6SM SCT250
KZID FIR / North America



MET'MAP, your aeronautical weather chart ! - Copyright ORBIFLY December 2007 - Disclaimer

ORBIFLY MET'MAP TEAM :

Programming & Development : Alexandra Zaïnal
Concept & original design : Baudouin d'Aumeries
Assistance for programming : Marc-Olivier Méhu
Technical & hardware support : Manuel Goepfert

Contact : metmap@orbifly.com




SOURCES & CREDITS :

   NOAA       Earth
Advisory